Wetterverlauf

Letzte Wetterlage 29.08.2014 21:48
Wetterdiagramm
Tabellarische Darstellung
Datum Temperatur Windchill Feuchte Luftdruck Windrichtung Windstärke Niederschlag
29.08.2014 21:48 14,9 °C 14,9 °C 80 % 1015,2 hPa 180 0.3 0,00 mm
29.08.2014 21:38 15,0 °C 15,0 °C 79 % 1015,4 hPa 180 0.7 0,00 mm
29.08.2014 21:28 15,1 °C 15,1 °C 78 % 1015,3 hPa 180 0.3 0,00 mm
29.08.2014 21:18 15,2 °C 15,2 °C 78 % 1015,2 hPa 225 0.0 0,00 mm
29.08.2014 21:08 15,3 °C 15,3 °C 77 % 1015,2 hPa 90 0.7 0,00 mm
29.08.2014 20:58 15,4 °C 15,4 °C 77 % 1015,1 hPa 180 0.3 0,00 mm
29.08.2014 20:48 15,6 °C 15,6 °C 77 % 1015,1 hPa 225 0.3 0,00 mm
29.08.2014 20:38 15,9 °C 15,9 °C 77 % 1014,8 hPa 180 0.7 0,00 mm
29.08.2014 20:28 16,2 °C 16,2 °C 77 % 1014,7 hPa 270 0.0 0,00 mm
29.08.2014 20:18 16,5 °C 16,5 °C 77 % 1014,7 hPa 180 0.0 0,00 mm
29.08.2014 20:08 16,8 °C 16,8 °C 78 % 1014,5 hPa 225 0.0 0,00 mm
29.08.2014 19:58 17,2 °C 17,2 °C 76 % 1014,6 hPa 225 0.0 0,00 mm
29.08.2014 19:48 17,5 °C 17,5 °C 76 % 1014,6 hPa 135 0.3 0,00 mm
29.08.2014 19:38 17,8 °C 17,8 °C 75 % 1014,3 hPa 158 0.7 0,00 mm
29.08.2014 19:28 18,1 °C 18,1 °C 75 % 1014,3 hPa 225 0.0 0,00 mm
29.08.2014 19:18 18,3 °C 18,3 °C 75 % 1014,3 hPa 180 0.0 0,00 mm
29.08.2014 19:08 18,5 °C 18,5 °C 74 % 1014,2 hPa 225 0.0 0,00 mm
29.08.2014 18:53 18,7 °C 18,7 °C 73 % 1014,2 hPa 180 0.0 0,00 mm
29.08.2014 18:43 18,9 °C 18,9 °C 72 % 1014,1 hPa 180 1.4 0,00 mm
29.08.2014 18:33 19,1 °C 19,1 °C 70 % 1014,1 hPa 180 0.7 0,00 mm
29.08.2014 18:23 19,3 °C 19,3 °C 71 % 1014,4 hPa 225 0.0 0,00 mm
29.08.2014 18:13 19,4 °C 19,4 °C 71 % 1014,2 hPa 158 0.3 0,00 mm
29.08.2014 18:03 19,3 °C 19,3 °C 73 % 1014,5 hPa 180 0.3 0,00 mm
29.08.2014 17:53 19,1 °C 19,1 °C 73 % 1014,4 hPa 270 0.3 0,00 mm
29.08.2014 17:43 18,9 °C 18,9 °C 75 % 1014,5 hPa 135 0.0 0,00 mm
Empfehlen Sie wetter.com
| Mehr
Neue Wetterwarnung

Neue Niederschlagsmeldung
Neue Meldung
Regen Liveticker
    sehr starker Regen/Gewitter
    starker Regen/Gewitter
    mäßiger bis starker Regen
    mäßiger Regen
    leichter bis mäßiger Regen
    kein Regen